sensor_id;sensor_type;location;lat;lon;timestamp;P1;durP1;ratioP1;P2;durP2;ratioP2
66429;SDS011;53242;51.694;10.006;2022-12-16T00:01:16;33.65;;;11.52;;
66429;SDS011;53242;51.694;10.006;2022-12-16T00:03:41;25.48;;;9.50;;
66429;SDS011;53242;51.694;10.006;2022-12-16T00:06:09;29.73;;;10.35;;
66429;SDS011;53242;51.694;10.006;2022-12-16T00:08:32;41.63;;;10.48;;
66429;SDS011;53242;51.694;10.006;2022-12-16T00:10:57;45.55;;;11.57;;
66429;SDS011;53242;51.694;10.006;2022-12-16T00:13:20;48.25;;;15.43;;
66429;SDS011;53242;51.694;10.006;2022-12-16T00:15:42;51.17;;;14.18;;
66429;SDS011;53242;51.694;10.006;2022-12-16T00:18:04;60.47;;;15.35;;
66429;SDS011;53242;51.694;10.006;2022-12-16T00:20:27;51.60;;;14.35;;
66429;SDS011;53242;51.694;10.006;2022-12-16T00:22:49;48.15;;;13.57;;
66429;SDS011;53242;51.694;10.006;2022-12-16T00:25:12;42.80;;;15.00;;
66429;SDS011;53242;51.694;10.006;2022-12-16T00:27:34;42.22;;;14.15;;
66429;SDS011;53242;51.694;10.006;2022-12-16T00:29:57;39.20;;;12.68;;
66429;SDS011;53242;51.694;10.006;2022-12-16T00:32:20;40.47;;;12.55;;
66429;SDS011;53242;51.694;10.006;2022-12-16T00:34:43;47.28;;;13.10;;
66429;SDS011;53242;51.694;10.006;2022-12-16T00:37:05;32.75;;;11.40;;
66429;SDS011;53242;51.694;10.006;2022-12-16T00:39:27;39.08;;;11.80;;
66429;SDS011;53242;51.694;10.006;2022-12-16T00:41:50;42.33;;;11.52;;
66429;SDS011;53242;51.694;10.006;2022-12-16T00:44:12;31.15;;;11.82;;
66429;SDS011;53242;51.694;10.006;2022-12-16T00:46:35;38.95;;;12.60;;
66429;SDS011;53242;51.694;10.006;2022-12-16T00:48:57;28.75;;;10.57;;
66429;SDS011;53242;51.694;10.006;2022-12-16T00:51:19;34.92;;;12.32;;
66429;SDS011;53242;51.694;10.006;2022-12-16T00:53:42;35.75;;;12.73;;
66429;SDS011;53242;51.694;10.006;2022-12-16T00:56:05;37.63;;;13.32;;
66429;SDS011;53242;51.694;10.006;2022-12-16T00:58:32;32.33;;;11.65;;
66429;SDS011;53242;51.694;10.006;2022-12-16T01:00:54;34.60;;;13.07;;
66429;SDS011;53242;51.694;10.006;2022-12-16T01:03:17;32.45;;;12.35;;
66429;SDS011;53242;51.694;10.006;2022-12-16T01:05:39;30.90;;;11.65;;
66429;SDS011;53242;51.694;10.006;2022-12-16T01:08:01;28.33;;;9.75;;
66429;SDS011;53242;51.694;10.006;2022-12-16T01:10:24;25.45;;;10.30;;
66429;SDS011;53242;51.694;10.006;2022-12-16T01:12:47;30.67;;;11.07;;
66429;SDS011;53242;51.694;10.006;2022-12-16T01:15:09;34.63;;;11.13;;
66429;SDS011;53242;51.694;10.006;2022-12-16T01:17:33;31.60;;;11.25;;
66429;SDS011;53242;51.694;10.006;2022-12-16T01:19:56;34.30;;;11.40;;
66429;SDS011;53242;51.694;10.006;2022-12-16T01:22:19;31.85;;;10.80;;
66429;SDS011;53242;51.694;10.006;2022-12-16T01:24:42;29.63;;;9.85;;
66429;SDS011;53242;51.694;10.006;2022-12-16T01:27:05;34.30;;;11.45;;
66429;SDS011;53242;51.694;10.006;2022-12-16T01:29:28;32.47;;;11.48;;
66429;SDS011;53242;51.694;10.006;2022-12-16T01:31:50;41.17;;;12.27;;
66429;SDS011;53242;51.694;10.006;2022-12-16T01:34:12;37.50;;;12.68;;
66429;SDS011;53242;51.694;10.006;2022-12-16T01:36:35;41.72;;;12.30;;
66429;SDS011;53242;51.694;10.006;2022-12-16T01:38:57;35.30;;;12.80;;
66429;SDS011;53242;51.694;10.006;2022-12-16T01:41:19;37.15;;;11.80;;
66429;SDS011;53242;51.694;10.006;2022-12-16T01:43:42;32.58;;;12.77;;
66429;SDS011;53242;51.694;10.006;2022-12-16T01:46:09;37.10;;;12.23;;
66429;SDS011;53242;51.694;10.006;2022-12-16T01:51:19;32.50;;;12.02;;
66429;SDS011;53242;51.694;10.006;2022-12-16T01:53:46;30.33;;;11.65;;
66429;SDS011;53242;51.694;10.006;2022-12-16T01:56:12;34.90;;;11.75;;
66429;SDS011;53242;51.694;10.006;2022-12-16T02:01:01;29.40;;;9.38;;
66429;SDS011;53242;51.694;10.006;2022-12-16T02:03:24;30.90;;;12.52;;
66429;SDS011;53242;51.694;10.006;2022-12-16T02:05:49;35.05;;;11.45;;
66429;SDS011;53242;51.694;10.006;2022-12-16T02:08:13;33.03;;;11.25;;
66429;SDS011;53242;51.694;10.006;2022-12-16T02:21:37;29.42;;;10.95;;
66429;SDS011;53242;51.694;10.006;2022-12-16T02:24:16;30.60;;;10.95;;
66429;SDS011;53242;51.694;10.006;2022-12-16T02:27:13;32.97;;;10.95;;
66429;SDS011;53242;51.694;10.006;2022-12-16T02:33:12;29.67;;;10.30;;
66429;SDS011;53242;51.694;10.006;2022-12-16T02:35:52;32.65;;;10.18;;
66429;SDS011;53242;51.694;10.006;2022-12-16T02:38:54;28.77;;;10.23;;
66429;SDS011;53242;51.694;10.006;2022-12-16T02:41:26;36.03;;;11.18;;
66429;SDS011;53242;51.694;10.006;2022-12-16T02:43:58;29.30;;;9.45;;
66429;SDS011;53242;51.694;10.006;2022-12-16T02:46:26;28.17;;;9.15;;
66429;SDS011;53242;51.694;10.006;2022-12-16T02:48:51;23.65;;;8.45;;
66429;SDS011;53242;51.694;10.006;2022-12-16T02:51:14;27.77;;;8.32;;
66429;SDS011;53242;51.694;10.006;2022-12-16T02:53:37;21.85;;;8.35;;
66429;SDS011;53242;51.694;10.006;2022-12-16T03:01:38;24.17;;;8.25;;
66429;SDS011;53242;51.694;10.006;2022-12-16T03:06:33;31.98;;;8.65;;
66429;SDS011;53242;51.694;10.006;2022-12-16T03:08:59;21.75;;;8.18;;
66429;SDS011;53242;51.694;10.006;2022-12-16T03:11:25;24.25;;;8.02;;
66429;SDS011;53242;51.694;10.006;2022-12-16T03:13:50;20.98;;;6.88;;
66429;SDS011;53242;51.694;10.006;2022-12-16T03:16:16;23.17;;;7.47;;
66429;SDS011;53242;51.694;10.006;2022-12-16T03:18:42;24.52;;;8.63;;
66429;SDS011;53242;51.694;10.006;2022-12-16T03:21:07;24.65;;;8.93;;
66429;SDS011;53242;51.694;10.006;2022-12-16T03:23:37;23.92;;;8.85;;
66429;SDS011;53242;51.694;10.006;2022-12-16T03:26:06;31.33;;;8.45;;
66429;SDS011;53242;51.694;10.006;2022-12-16T03:28:49;28.42;;;9.05;;
66429;SDS011;53242;51.694;10.006;2022-12-16T03:31:23;26.60;;;9.07;;
66429;SDS011;53242;51.694;10.006;2022-12-16T03:33:58;28.52;;;11.05;;
66429;SDS011;53242;51.694;10.006;2022-12-16T03:36:23;24.35;;;8.32;;
66429;SDS011;53242;51.694;10.006;2022-12-16T03:38:48;26.02;;;8.60;;
66429;SDS011;53242;51.694;10.006;2022-12-16T03:41:12;24.02;;;7.60;;
66429;SDS011;53242;51.694;10.006;2022-12-16T03:43:36;30.67;;;9.57;;
66429;SDS011;53242;51.694;10.006;2022-12-16T03:46:00;27.02;;;9.18;;
66429;SDS011;53242;51.694;10.006;2022-12-16T03:48:26;25.92;;;10.45;;
66429;SDS011;53242;51.694;10.006;2022-12-16T03:50:49;24.55;;;8.60;;
66429;SDS011;53242;51.694;10.006;2022-12-16T03:53:11;27.77;;;9.63;;
66429;SDS011;53242;51.694;10.006;2022-12-16T03:55:34;25.25;;;9.45;;
66429;SDS011;53242;51.694;10.006;2022-12-16T03:57:56;31.17;;;9.40;;
66429;SDS011;53242;51.694;10.006;2022-12-16T04:00:19;25.55;;;7.85;;
66429;SDS011;53242;51.694;10.006;2022-12-16T04:02:42;25.23;;;8.50;;
66429;SDS011;53242;51.694;10.006;2022-12-16T04:05:05;32.03;;;9.50;;
66429;SDS011;53242;51.694;10.006;2022-12-16T04:07:27;25.85;;;8.98;;
66429;SDS011;53242;51.694;10.006;2022-12-16T04:09:50;20.83;;;7.85;;
66429;SDS011;53242;51.694;10.006;2022-12-16T04:12:13;26.60;;;8.52;;
66429;SDS011;53242;51.694;10.006;2022-12-16T04:14:54;24.25;;;8.98;;
66429;SDS011;53242;51.694;10.006;2022-12-16T04:17:35;26.65;;;9.02;;
66429;SDS011;53242;51.694;10.006;2022-12-16T04:20:16;29.20;;;10.82;;
66429;SDS011;53242;51.694;10.006;2022-12-16T04:22:58;26.50;;;8.90;;
66429;SDS011;53242;51.694;10.006;2022-12-16T04:25:39;25.95;;;8.25;;
66429;SDS011;53242;51.694;10.006;2022-12-16T04:28:01;25.95;;;9.05;;
66429;SDS011;53242;51.694;10.006;2022-12-16T04:30:24;24.05;;;9.15;;
66429;SDS011;53242;51.694;10.006;2022-12-16T04:35:59;27.10;;;8.50;;
66429;SDS011;53242;51.694;10.006;2022-12-16T04:38:50;22.10;;;7.65;;
66429;SDS011;53242;51.694;10.006;2022-12-16T04:41:31;24.95;;;7.63;;
66429;SDS011;53242;51.694;10.006;2022-12-16T04:44:12;21.50;;;7.60;;
66429;SDS011;53242;51.694;10.006;2022-12-16T04:46:53;24.00;;;8.57;;
66429;SDS011;53242;51.694;10.006;2022-12-16T04:49:34;25.48;;;9.45;;
66429;SDS011;53242;51.694;10.006;2022-12-16T04:52:16;30.55;;;9.50;;
66429;SDS011;53242;51.694;10.006;2022-12-16T04:54:57;23.58;;;7.45;;
66429;SDS011;53242;51.694;10.006;2022-12-16T04:57:38;31.92;;;9.48;;
66429;SDS011;53242;51.694;10.006;2022-12-16T05:00:19;26.10;;;8.75;;
66429;SDS011;53242;51.694;10.006;2022-12-16T05:02:59;24.90;;;8.90;;
66429;SDS011;53242;51.694;10.006;2022-12-16T05:05:41;23.98;;;6.97;;
66429;SDS011;53242;51.694;10.006;2022-12-16T05:08:21;23.83;;;8.63;;
66429;SDS011;53242;51.694;10.006;2022-12-16T05:11:02;26.10;;;8.27;;
66429;SDS011;53242;51.694;10.006;2022-12-16T05:13:44;21.40;;;7.22;;
66429;SDS011;53242;51.694;10.006;2022-12-16T05:16:24;21.35;;;8.73;;
66429;SDS011;53242;51.694;10.006;2022-12-16T05:19:05;37.58;;;9.27;;
66429;SDS011;53242;51.694;10.006;2022-12-16T05:21:46;26.27;;;9.15;;
66429;SDS011;53242;51.694;10.006;2022-12-16T05:24:27;24.98;;;8.70;;
66429;SDS011;53242;51.694;10.006;2022-12-16T05:27:07;22.38;;;8.38;;
66429;SDS011;53242;51.694;10.006;2022-12-16T05:29:48;23.05;;;8.88;;
66429;SDS011;53242;51.694;10.006;2022-12-16T05:32:29;20.95;;;7.60;;
66429;SDS011;53242;51.694;10.006;2022-12-16T05:35:10;25.65;;;8.18;;
66429;SDS011;53242;51.694;10.006;2022-12-16T05:38:10;19.63;;;7.15;;
66429;SDS011;53242;51.694;10.006;2022-12-16T05:40:51;28.58;;;8.75;;
66429;SDS011;53242;51.694;10.006;2022-12-16T05:43:32;23.23;;;8.15;;
66429;SDS011;53242;51.694;10.006;2022-12-16T05:46:13;24.10;;;9.02;;
66429;SDS011;53242;51.694;10.006;2022-12-16T05:48:54;25.80;;;10.75;;
66429;SDS011;53242;51.694;10.006;2022-12-16T05:51:34;27.08;;;11.88;;
66429;SDS011;53242;51.694;10.006;2022-12-16T05:54:15;28.23;;;11.13;;
66429;SDS011;53242;51.694;10.006;2022-12-16T05:56:56;27.48;;;10.75;;
66429;SDS011;53242;51.694;10.006;2022-12-16T05:59:37;27.77;;;8.93;;
66429;SDS011;53242;51.694;10.006;2022-12-16T06:02:17;24.95;;;8.23;;
66429;SDS011;53242;51.694;10.006;2022-12-16T06:04:58;25.08;;;9.23;;
66429;SDS011;53242;51.694;10.006;2022-12-16T06:07:39;24.17;;;8.60;;
66429;SDS011;53242;51.694;10.006;2022-12-16T06:10:20;19.75;;;7.88;;
66429;SDS011;53242;51.694;10.006;2022-12-16T06:13:01;29.75;;;11.10;;
66429;SDS011;53242;51.694;10.006;2022-12-16T06:15:41;23.23;;;8.50;;
66429;SDS011;53242;51.694;10.006;2022-12-16T06:18:22;26.75;;;10.10;;
66429;SDS011;53242;51.694;10.006;2022-12-16T06:21:03;28.65;;;8.73;;
66429;SDS011;53242;51.694;10.006;2022-12-16T06:23:44;25.25;;;8.70;;
66429;SDS011;53242;51.694;10.006;2022-12-16T06:26:25;28.95;;;8.68;;
66429;SDS011;53242;51.694;10.006;2022-12-16T06:29:07;21.80;;;8.23;;
66429;SDS011;53242;51.694;10.006;2022-12-16T06:31:49;21.40;;;8.30;;
66429;SDS011;53242;51.694;10.006;2022-12-16T06:34:29;26.52;;;8.25;;
66429;SDS011;53242;51.694;10.006;2022-12-16T06:37:10;23.15;;;9.57;;
66429;SDS011;53242;51.694;10.006;2022-12-16T06:39:51;26.27;;;9.00;;
66429;SDS011;53242;51.694;10.006;2022-12-16T06:42:32;25.45;;;8.95;;
66429;SDS011;53242;51.694;10.006;2022-12-16T06:45:13;22.83;;;7.82;;
66429;SDS011;53242;51.694;10.006;2022-12-16T06:47:54;23.52;;;8.63;;
66429;SDS011;53242;51.694;10.006;2022-12-16T06:50:35;24.90;;;8.68;;
66429;SDS011;53242;51.694;10.006;2022-12-16T06:53:15;26.20;;;8.75;;
66429;SDS011;53242;51.694;10.006;2022-12-16T06:55:56;28.05;;;9.23;;
66429;SDS011;53242;51.694;10.006;2022-12-16T06:58:37;26.05;;;8.18;;
66429;SDS011;53242;51.694;10.006;2022-12-16T07:01:18;18.20;;;7.13;;
66429;SDS011;53242;51.694;10.006;2022-12-16T07:03:59;22.23;;;7.40;;
66429;SDS011;53242;51.694;10.006;2022-12-16T07:06:39;23.13;;;8.70;;
66429;SDS011;53242;51.694;10.006;2022-12-16T07:09:20;19.70;;;6.93;;
66429;SDS011;53242;51.694;10.006;2022-12-16T07:12:01;19.35;;;7.88;;
66429;SDS011;53242;51.694;10.006;2022-12-16T07:14:42;26.08;;;8.73;;
66429;SDS011;53242;51.694;10.006;2022-12-16T07:17:23;20.23;;;8.00;;
66429;SDS011;53242;51.694;10.006;2022-12-16T07:20:03;25.30;;;8.98;;
66429;SDS011;53242;51.694;10.006;2022-12-16T07:22:44;19.13;;;8.15;;
66429;SDS011;53242;51.694;10.006;2022-12-16T07:25:26;27.73;;;8.63;;
66429;SDS011;53242;51.694;10.006;2022-12-16T07:28:07;29.05;;;9.43;;
66429;SDS011;53242;51.694;10.006;2022-12-16T07:30:48;24.67;;;8.68;;
66429;SDS011;53242;51.694;10.006;2022-12-16T07:33:29;28.05;;;9.40;;
66429;SDS011;53242;51.694;10.006;2022-12-16T07:36:09;25.98;;;8.95;;
66429;SDS011;53242;51.694;10.006;2022-12-16T07:38:50;21.60;;;9.10;;
66429;SDS011;53242;51.694;10.006;2022-12-16T07:41:47;22.67;;;8.73;;
66429;SDS011;53242;51.694;10.006;2022-12-16T07:44:28;33.58;;;9.57;;
66429;SDS011;53242;51.694;10.006;2022-12-16T07:47:09;24.08;;;10.55;;
66429;SDS011;53242;51.694;10.006;2022-12-16T07:49:50;28.38;;;10.32;;
66429;SDS011;53242;51.694;10.006;2022-12-16T07:52:31;29.58;;;10.07;;
66429;SDS011;53242;51.694;10.006;2022-12-16T07:55:12;29.48;;;10.50;;
66429;SDS011;53242;51.694;10.006;2022-12-16T07:57:53;30.33;;;9.43;;
66429;SDS011;53242;51.694;10.006;2022-12-16T08:00:34;27.25;;;9.07;;
66429;SDS011;53242;51.694;10.006;2022-12-16T08:03:14;28.95;;;9.38;;
66429;SDS011;53242;51.694;10.006;2022-12-16T08:05:55;29.98;;;9.73;;
66429;SDS011;53242;51.694;10.006;2022-12-16T08:08:36;29.45;;;10.25;;
66429;SDS011;53242;51.694;10.006;2022-12-16T08:11:17;22.02;;;8.45;;
66429;SDS011;53242;51.694;10.006;2022-12-16T08:13:57;26.60;;;8.52;;
66429;SDS011;53242;51.694;10.006;2022-12-16T08:16:38;23.42;;;8.70;;
66429;SDS011;53242;51.694;10.006;2022-12-16T08:19:19;22.90;;;9.10;;
66429;SDS011;53242;51.694;10.006;2022-12-16T08:22:00;34.42;;;11.00;;
66429;SDS011;53242;51.694;10.006;2022-12-16T08:24:41;24.70;;;9.25;;
66429;SDS011;53242;51.694;10.006;2022-12-16T08:27:22;31.23;;;10.00;;
66429;SDS011;53242;51.694;10.006;2022-12-16T08:30:02;22.05;;;7.60;;
66429;SDS011;53242;51.694;10.006;2022-12-16T08:32:44;28.90;;;8.45;;
66429;SDS011;53242;51.694;10.006;2022-12-16T08:35:24;28.10;;;10.40;;
66429;SDS011;53242;51.694;10.006;2022-12-16T08:38:05;31.02;;;10.90;;
66429;SDS011;53242;51.694;10.006;2022-12-16T08:40:46;26.05;;;10.10;;
66429;SDS011;53242;51.694;10.006;2022-12-16T08:43:28;30.33;;;10.68;;
66429;SDS011;53242;51.694;10.006;2022-12-16T08:46:11;29.05;;;10.95;;
66429;SDS011;53242;51.694;10.006;2022-12-16T08:48:52;31.05;;;10.15;;
66429;SDS011;53242;51.694;10.006;2022-12-16T08:51:32;27.70;;;11.88;;
66429;SDS011;53242;51.694;10.006;2022-12-16T08:54:13;33.70;;;12.82;;
66429;SDS011;53242;51.694;10.006;2022-12-16T08:56:55;34.88;;;11.30;;
66429;SDS011;53242;51.694;10.006;2022-12-16T08:59:36;24.88;;;11.43;;
66429;SDS011;53242;51.694;10.006;2022-12-16T09:02:17;37.67;;;12.02;;
66429;SDS011;53242;51.694;10.006;2022-12-16T09:04:58;49.08;;;15.73;;
66429;SDS011;53242;51.694;10.006;2022-12-16T09:07:39;43.00;;;15.73;;
66429;SDS011;53242;51.694;10.006;2022-12-16T09:10:20;53.45;;;17.17;;
66429;SDS011;53242;51.694;10.006;2022-12-16T09:13:34;38.53;;;12.38;;
66429;SDS011;53242;51.694;10.006;2022-12-16T09:16:08;42.15;;;13.95;;
66429;SDS011;53242;51.694;10.006;2022-12-16T09:18:49;33.28;;;11.85;;
66429;SDS011;53242;51.694;10.006;2022-12-16T09:21:30;25.42;;;10.05;;
66429;SDS011;53242;51.694;10.006;2022-12-16T09:24:11;29.40;;;11.25;;
66429;SDS011;53242;51.694;10.006;2022-12-16T09:26:52;25.23;;;9.95;;
66429;SDS011;53242;51.694;10.006;2022-12-16T09:29:33;27.90;;;11.60;;
66429;SDS011;53242;51.694;10.006;2022-12-16T09:32:14;32.58;;;11.57;;
66429;SDS011;53242;51.694;10.006;2022-12-16T09:34:55;33.90;;;10.70;;
66429;SDS011;53242;51.694;10.006;2022-12-16T09:37:35;27.42;;;8.70;;
66429;SDS011;53242;51.694;10.006;2022-12-16T09:40:16;27.55;;;8.60;;
66429;SDS011;53242;51.694;10.006;2022-12-16T09:51:40;25.77;;;9.82;;
66429;SDS011;53242;51.694;10.006;2022-12-16T09:54:24;24.60;;;9.23;;
66429;SDS011;53242;51.694;10.006;2022-12-16T09:57:08;29.85;;;9.55;;
66429;SDS011;53242;51.694;10.006;2022-12-16T10:00:03;27.67;;;9.30;;
66429;SDS011;53242;51.694;10.006;2022-12-16T10:02:46;24.27;;;8.68;;
66429;SDS011;53242;51.694;10.006;2022-12-16T10:05:31;22.02;;;8.23;;
66429;SDS011;53242;51.694;10.006;2022-12-16T10:08:27;28.55;;;8.73;;
66429;SDS011;53242;51.694;10.006;2022-12-16T10:14:25;24.95;;;8.93;;
66429;SDS011;53242;51.694;10.006;2022-12-16T10:17:17;25.45;;;8.75;;
66429;SDS011;53242;51.694;10.006;2022-12-16T10:20:05;29.38;;;9.73;;
66429;SDS011;53242;51.694;10.006;2022-12-16T10:23:07;24.67;;;8.32;;
66429;SDS011;53242;51.694;10.006;2022-12-16T10:25:59;21.00;;;9.40;;
66429;SDS011;53242;51.694;10.006;2022-12-16T10:28:56;25.58;;;9.70;;
66429;SDS011;53242;51.694;10.006;2022-12-16T10:31:41;23.02;;;8.80;;
66429;SDS011;53242;51.694;10.006;2022-12-16T10:34:26;16.40;;;7.35;;
66429;SDS011;53242;51.694;10.006;2022-12-16T10:37:13;23.40;;;8.18;;
66429;SDS011;53242;51.694;10.006;2022-12-16T10:40:00;26.02;;;9.95;;
66429;SDS011;53242;51.694;10.006;2022-12-16T10:43:01;39.38;;;14.45;;
66429;SDS011;53242;51.694;10.006;2022-12-16T10:45:46;26.05;;;9.35;;
66429;SDS011;53242;51.694;10.006;2022-12-16T10:48:30;30.02;;;10.23;;
66429;SDS011;53242;51.694;10.006;2022-12-16T10:51:21;25.02;;;9.98;;
66429;SDS011;53242;51.694;10.006;2022-12-16T10:54:22;24.15;;;8.85;;
66429;SDS011;53242;51.694;10.006;2022-12-16T10:57:08;26.13;;;9.43;;
66429;SDS011;53242;51.694;10.006;2022-12-16T11:00:18;25.88;;;10.70;;
66429;SDS011;53242;51.694;10.006;2022-12-16T11:03:15;23.55;;;9.52;;
66429;SDS011;53242;51.694;10.006;2022-12-16T11:05:58;22.88;;;7.88;;
66429;SDS011;53242;51.694;10.006;2022-12-16T11:08:40;31.88;;;11.05;;
66429;SDS011;53242;51.694;10.006;2022-12-16T11:11:25;24.92;;;8.85;;
66429;SDS011;53242;51.694;10.006;2022-12-16T11:20:06;27.08;;;9.35;;
66429;SDS011;53242;51.694;10.006;2022-12-16T11:26:04;25.45;;;9.57;;
66429;SDS011;53242;51.694;10.006;2022-12-16T11:29:00;21.27;;;8.65;;
66429;SDS011;53242;51.694;10.006;2022-12-16T11:31:50;26.23;;;10.18;;
66429;SDS011;53242;51.694;10.006;2022-12-16T11:34:36;30.85;;;10.13;;
66429;SDS011;53242;51.694;10.006;2022-12-16T11:37:17;26.23;;;9.88;;
66429;SDS011;53242;51.694;10.006;2022-12-16T11:39:59;30.45;;;10.65;;
66429;SDS011;53242;51.694;10.006;2022-12-16T11:42:42;29.13;;;10.80;;
66429;SDS011;53242;51.694;10.006;2022-12-16T11:45:22;25.77;;;10.27;;
66429;SDS011;53242;51.694;10.006;2022-12-16T11:48:10;23.98;;;10.52;;
66429;SDS011;53242;51.694;10.006;2022-12-16T11:50:58;26.45;;;9.77;;
66429;SDS011;53242;51.694;10.006;2022-12-16T11:56:26;27.90;;;10.57;;
66429;SDS011;53242;51.694;10.006;2022-12-16T11:59:18;29.10;;;10.93;;
66429;SDS011;53242;51.694;10.006;2022-12-16T12:02:09;27.15;;;9.35;;
66429;SDS011;53242;51.694;10.006;2022-12-16T12:05:09;29.63;;;9.27;;
66429;SDS011;53242;51.694;10.006;2022-12-16T12:07:57;27.17;;;10.05;;
66429;SDS011;53242;51.694;10.006;2022-12-16T12:10:48;21.33;;;8.82;;
66429;SDS011;53242;51.694;10.006;2022-12-16T12:17:19;31.20;;;9.82;;
66429;SDS011;53242;51.694;10.006;2022-12-16T12:23:10;26.45;;;9.93;;
66429;SDS011;53242;51.694;10.006;2022-12-16T12:32:14;26.73;;;9.90;;
66429;SDS011;53242;51.694;10.006;2022-12-16T12:38:27;25.67;;;9.80;;
66429;SDS011;53242;51.694;10.006;2022-12-16T12:41:18;24.02;;;9.55;;
66429;SDS011;53242;51.694;10.006;2022-12-16T12:47:16;28.55;;;10.32;;
66429;SDS011;53242;51.694;10.006;2022-12-16T12:50:08;25.30;;;10.27;;
66429;SDS011;53242;51.694;10.006;2022-12-16T12:53:06;40.65;;;13.77;;
66429;SDS011;53242;51.694;10.006;2022-12-16T12:59:11;23.45;;;9.63;;
66429;SDS011;53242;51.694;10.006;2022-12-16T13:02:00;31.35;;;11.32;;
66429;SDS011;53242;51.694;10.006;2022-12-16T13:04:45;29.38;;;11.32;;
66429;SDS011;53242;51.694;10.006;2022-12-16T13:07:30;25.52;;;8.93;;
66429;SDS011;53242;51.694;10.006;2022-12-16T13:15:54;28.83;;;11.18;;
66429;SDS011;53242;51.694;10.006;2022-12-16T13:18:35;29.35;;;10.30;;
66429;SDS011;53242;51.694;10.006;2022-12-16T13:21:41;33.80;;;11.35;;
66429;SDS011;53242;51.694;10.006;2022-12-16T13:24:39;28.55;;;11.65;;
66429;SDS011;53242;51.694;10.006;2022-12-16T13:27:24;27.33;;;9.88;;
66429;SDS011;53242;51.694;10.006;2022-12-16T13:32:54;26.20;;;10.43;;
66429;SDS011;53242;51.694;10.006;2022-12-16T13:35:50;27.58;;;10.05;;
66429;SDS011;53242;51.694;10.006;2022-12-16T13:38:32;25.13;;;9.90;;
66429;SDS011;53242;51.694;10.006;2022-12-16T13:41:57;28.77;;;10.93;;
66429;SDS011;53242;51.694;10.006;2022-12-16T13:44:52;30.20;;;10.32;;
66429;SDS011;53242;51.694;10.006;2022-12-16T13:47:32;24.25;;;9.70;;
66429;SDS011;53242;51.694;10.006;2022-12-16T13:53:19;23.65;;;9.27;;
66429;SDS011;53242;51.694;10.006;2022-12-16T13:56:02;28.55;;;9.88;;
66429;SDS011;53242;51.694;10.006;2022-12-16T13:58:52;25.58;;;10.82;;
66429;SDS011;53242;51.694;10.006;2022-12-16T14:01:42;26.02;;;9.32;;
66429;SDS011;53242;51.694;10.006;2022-12-16T14:04:30;25.42;;;8.85;;
66429;SDS011;53242;51.694;10.006;2022-12-16T14:07:17;28.00;;;11.15;;
66429;SDS011;53242;51.694;10.006;2022-12-16T14:10:02;29.77;;;10.80;;
66429;SDS011;53242;51.694;10.006;2022-12-16T14:12:48;33.35;;;11.90;;
66429;SDS011;53242;51.694;10.006;2022-12-16T14:22:04;30.08;;;11.23;;
66429;SDS011;53242;51.694;10.006;2022-12-16T14:25:21;28.52;;;11.43;;
66429;SDS011;53242;51.694;10.006;2022-12-16T14:28:07;24.67;;;10.30;;
66429;SDS011;53242;51.694;10.006;2022-12-16T14:31:01;28.80;;;11.13;;
66429;SDS011;53242;51.694;10.006;2022-12-16T14:33:52;30.05;;;11.55;;
66429;SDS011;53242;51.694;10.006;2022-12-16T14:36:36;26.33;;;11.75;;
66429;SDS011;53242;51.694;10.006;2022-12-16T14:39:19;29.65;;;10.30;;
66429;SDS011;53242;51.694;10.006;2022-12-16T14:42:02;26.63;;;11.00;;
66429;SDS011;53242;51.694;10.006;2022-12-16T14:44:45;27.45;;;11.43;;
66429;SDS011;53242;51.694;10.006;2022-12-16T14:47:27;28.35;;;12.10;;
66429;SDS011;53242;51.694;10.006;2022-12-16T14:50:20;31.23;;;11.93;;
66429;SDS011;53242;51.694;10.006;2022-12-16T14:53:13;31.23;;;11.90;;
66429;SDS011;53242;51.694;10.006;2022-12-16T14:56:08;28.83;;;11.45;;
66429;SDS011;53242;51.694;10.006;2022-12-16T14:59:06;33.67;;;13.13;;
66429;SDS011;53242;51.694;10.006;2022-12-16T15:01:47;32.10;;;11.95;;
66429;SDS011;53242;51.694;10.006;2022-12-16T15:04:29;32.05;;;12.50;;
66429;SDS011;53242;51.694;10.006;2022-12-16T15:07:11;35.45;;;12.10;;
66429;SDS011;53242;51.694;10.006;2022-12-16T15:09:54;24.27;;;9.88;;
66429;SDS011;53242;51.694;10.006;2022-12-16T15:12:40;26.38;;;10.13;;
66429;SDS011;53242;51.694;10.006;2022-12-16T15:15:40;29.33;;;10.30;;
66429;SDS011;53242;51.694;10.006;2022-12-16T15:18:25;32.63;;;9.60;;
66429;SDS011;53242;51.694;10.006;2022-12-16T15:21:12;25.88;;;9.52;;
66429;SDS011;53242;51.694;10.006;2022-12-16T15:23:53;24.20;;;10.20;;
66429;SDS011;53242;51.694;10.006;2022-12-16T15:26:36;27.30;;;10.32;;
66429;SDS011;53242;51.694;10.006;2022-12-16T15:29:36;29.85;;;11.48;;
66429;SDS011;53242;51.694;10.006;2022-12-16T15:32:24;28.15;;;11.00;;
66429;SDS011;53242;51.694;10.006;2022-12-16T15:35:09;28.40;;;11.45;;
66429;SDS011;53242;51.694;10.006;2022-12-16T15:38:02;32.05;;;11.98;;
66429;SDS011;53242;51.694;10.006;2022-12-16T15:41:25;29.70;;;11.63;;
66429;SDS011;53242;51.694;10.006;2022-12-16T15:44:17;28.17;;;10.70;;
66429;SDS011;53242;51.694;10.006;2022-12-16T15:47:00;27.73;;;10.43;;
66429;SDS011;53242;51.694;10.006;2022-12-16T15:49:43;30.88;;;10.38;;
66429;SDS011;53242;51.694;10.006;2022-12-16T15:55:20;33.90;;;12.73;;
66429;SDS011;53242;51.694;10.006;2022-12-16T15:58:08;29.88;;;10.27;;
66429;SDS011;53242;51.694;10.006;2022-12-16T16:01:03;32.88;;;11.30;;
66429;SDS011;53242;51.694;10.006;2022-12-16T16:03:50;27.27;;;10.35;;
66429;SDS011;53242;51.694;10.006;2022-12-16T16:06:33;26.42;;;9.73;;
66429;SDS011;53242;51.694;10.006;2022-12-16T16:09:15;29.98;;;9.90;;
66429;SDS011;53242;51.694;10.006;2022-12-16T16:12:00;21.27;;;9.00;;
66429;SDS011;53242;51.694;10.006;2022-12-16T16:14:41;27.00;;;11.65;;
66429;SDS011;53242;51.694;10.006;2022-12-16T16:17:22;47.47;;;16.35;;
66429;SDS011;53242;51.694;10.006;2022-12-16T16:20:03;63.45;;;21.88;;
66429;SDS011;53242;51.694;10.006;2022-12-16T16:22:45;38.50;;;14.68;;
66429;SDS011;53242;51.694;10.006;2022-12-16T16:25:25;28.98;;;10.27;;
66429;SDS011;53242;51.694;10.006;2022-12-16T16:28:06;23.80;;;8.90;;
66429;SDS011;53242;51.694;10.006;2022-12-16T16:30:48;35.33;;;13.63;;
66429;SDS011;53242;51.694;10.006;2022-12-16T16:33:29;35.30;;;12.65;;
66429;SDS011;53242;51.694;10.006;2022-12-16T16:36:11;26.45;;;10.65;;
66429;SDS011;53242;51.694;10.006;2022-12-16T16:41:35;26.63;;;10.00;;
66429;SDS011;53242;51.694;10.006;2022-12-16T16:44:30;33.75;;;11.52;;
66429;SDS011;53242;51.694;10.006;2022-12-16T16:47:27;31.58;;;10.68;;
66429;SDS011;53242;51.694;10.006;2022-12-16T16:50:22;32.90;;;12.73;;
66429;SDS011;53242;51.694;10.006;2022-12-16T16:53:03;32.28;;;13.93;;
66429;SDS011;53242;51.694;10.006;2022-12-16T16:55:43;36.15;;;13.50;;
66429;SDS011;53242;51.694;10.006;2022-12-16T16:58:26;40.88;;;14.50;;
66429;SDS011;53242;51.694;10.006;2022-12-16T17:03:54;42.88;;;15.73;;
66429;SDS011;53242;51.694;10.006;2022-12-16T17:06:34;39.70;;;14.98;;
66429;SDS011;53242;51.694;10.006;2022-12-16T17:09:15;37.53;;;14.07;;
66429;SDS011;53242;51.694;10.006;2022-12-16T17:11:56;40.38;;;13.38;;